James Reserve, California Weather observations

Data are for 10 minute period ending at time listed.
 Day   Time   Solar   Ave.   Ave.  Ave.  Vector  Max.   Baro.   Total    
  of    of     Rad.   Air    Rel.  Wind   Wind   Wind  Press.  Precip.   
Year   Day            Temp.  Hum.  Speed  Dir.   Gust                    
2017   (PST)  Kw/m2    F      %     mph   deg.    mph    mb.     in.     
-------------------------------------------------------------------------
  54    7:50   0.02   25.2    88    0.7    53     1.2   834.0    0.00 
  54    8:00   0.05   25.7    86    0.4    67     0.9   834.0    0.00 
  54    8:10   0.02   26.1    84    0.3    74     0.8   834.0    0.00 
  54    8:20   0.03   26.6    84    0.3   102     1.3   834.0    0.00 
  54    8:30   0.03   27.0    84    0.2   106     0.4   834.0    0.00 
  54    8:40   0.03   27.8    81    0.4   147     1.1   834.0    0.00 
  54    8:50   0.04   29.0    76    0.7   193     1.9   834.0    0.00 
  54    9:00   0.05   29.8    71    0.8   189     2.4   834.0    0.00 
  54    9:10   0.03   30.8    68    0.9   224     2.0   834.0    0.00 
  54    9:20   0.04   31.2    65    0.9   195     2.2   834.0    0.00 
  54    9:30   0.08   31.5    66    0.7   158     2.0   834.0    0.00 
  54    9:40   0.04   32.0    64    1.1   192     2.2   834.0    0.00 
  54    9:50   0.04   32.6    61    0.8   196     2.7   834.0    0.00 
  54   10:00   0.04   33.4    63    1.0   190     2.5   834.0    0.00 
  54   10:10   0.04   33.0    64    1.0   223     2.9   834.0    0.00 
  54   10:20   0.05   33.3    63    1.1   191     2.8   834.0    0.00 
  54   10:30   0.11   33.6    61    1.1   223     2.5   834.0    0.00 
  54   10:40   0.09   33.3    62    0.8   143     3.4   834.0    0.00 
  54   10:50   0.31   33.4    64    1.1   166     2.5   834.0    0.00 
  54   11:00   0.17   33.5    62    0.9   172     2.5   834.0    0.00 
  54   11:10   0.12   33.9    64    1.2   179     2.9   834.0    0.00 
  54   11:20   0.49   34.5    65    1.0   188     2.5   834.0    0.00 
  54   11:30   0.93   35.5    62    0.9   145     2.5   833.0    0.00 
  54   11:40   0.93   36.4    59    1.1   205     4.1   833.0    0.00 
  54   11:50   0.92   35.9    58    1.0   180     2.4   833.0    0.00 
  54   12:00   0.92   36.3    59    1.0   171     3.2   833.0    0.00 
  54   12:10   0.93   36.3    58    1.1   217     2.6   833.0    0.00 
  54   12:20   0.93   37.6    57    0.9   236     2.9   833.0    0.00 
  54   12:30   0.93   36.5    60    1.1   219     2.9   833.0    0.00 
  54   12:40   0.92   37.5    58    1.0   162     2.3   833.0    0.00 
  54   12:50   0.91   36.9    61    1.0   238     2.8   833.0    0.00 
  54   13:00   0.90   37.5    59    1.0   175     2.6   833.0    0.00 
  54   13:10   0.89   37.2    56    0.8   197     2.0   833.0    0.00 
  54   13:20   0.87   37.9    52    0.9   306     2.2   833.0    0.00 
  54   13:30   0.86   37.6    52    1.0   152     2.9   833.0    0.00 
  54   13:40   0.83   37.6    55    1.0   194     2.3   833.0    0.00 
  54   13:50   0.81   37.9    55    1.0   173     3.6   833.0    0.00 
  54   14:00   0.79   36.9    53    0.8   206     1.6   833.0    0.00 
  54   14:10   0.77   37.2    52    1.3   214     2.3   833.0    0.00 
  54   14:20   0.74   36.2    52    1.2   218     2.5   833.0    0.00 
  54   14:30   0.71   37.2    53    1.0   169     2.4   833.0    0.00 
  54   14:40   0.41   36.7    54    0.8   181     2.0   833.0    0.00 
  54   14:50   0.04   36.9    50    0.9   150     2.8   833.0    0.00 
  54   15:00   0.04   36.4    52    0.8   206     2.8   833.0    0.00 
  54   15:10   0.06   36.3    55    0.8   145     2.5   833.0    0.00 
  54   15:20   0.08   36.0    50    0.9   147     2.0   833.0    0.00 
  54   15:30   0.04   36.0    53    1.1   134     2.7   833.0    0.00 
  54   15:40   0.04   35.7    55    0.8   154     2.8   833.0    0.00 
  54   15:50   0.05   35.6    57    0.7   130     2.1   833.0    0.00 
  54   16:00   0.07   34.9    65    0.5   171     1.4   833.0    0.00 
  54   16:10   0.10   35.0    71    0.7   130     1.7   833.0    0.00 
  54   16:20   0.08   34.9    72    0.7   163     1.9   833.0    0.00 
  54   16:30   0.03   34.5    73    0.5    32     1.2   833.0    0.00 
  54   16:40   0.04   34.2    76    0.7   210     1.9   833.0    0.00 
  54   16:50   0.04   34.0    78    0.5    64     1.3   833.0    0.00 
  54   17:00   0.03   33.8    78    0.6    32     1.6   833.0    0.00 
  54   17:10   0.03   33.5    78    0.6   157     1.3   833.0    0.00 
  54   17:20   0.01   32.9    79    0.5   230     1.4   833.0    0.00 
  54   17:30   0.01   32.5    81    0.4   155     0.9   833.0    0.00 
  54   17:40   0.00   32.0    83    0.5   113     1.9   833.0    0.00 
  54   17:50   0.00   31.5    84    0.4   101     1.4   833.0    0.00 
  54   18:00   0.00   31.0    84    0.4    82     0.7   833.0    0.00 
  54   18:10   0.00   30.2    86    0.3   331     0.7   834.0    0.00 
  54   18:20   0.00   29.2    88    0.3    46     0.6   834.0    0.00 
  54   18:30   0.00   28.5    90    0.5    65     1.0   834.0    0.00 
  54   18:40   0.00   28.2    90    0.3    19     0.6   834.0    0.00 
  54   18:50   0.00   27.9    90    0.3   105     0.7   834.0    0.00 
  54   19:00   0.00   27.7    91    0.3    13     0.6   834.0    0.00 
  54   19:10   0.00   27.5    91    0.2    46     0.5   834.0    0.00 
  54   19:20   0.00   27.3    91    0.3    32     0.6   834.0    0.00 
  54   19:30   0.00   27.1    92    0.3   356     0.5   834.0    0.00 
  54   19:40   0.00   26.9    92    0.3    36     0.7   834.0    0.00 
  54   19:50   0.00   26.8    92    0.2   277     0.5   834.0    0.00 
  54   20:00   0.00   26.6    93    0.3    36     0.6   834.0    0.00 
  54   20:10   0.00   26.6    93    0.5    46     0.7   834.0    0.00 
  54   20:20   0.00   26.6    93    0.4    32     0.8   834.0    0.00 
  54   20:30   0.00   26.7    93    0.3   273     0.6   834.0    0.00 
  54   20:40   0.00   26.8    93    0.3    32     0.7   835.0    0.00 
  54   20:50   0.00   26.8    93    0.4    28     0.7   835.0    0.00 
  54   21:00   0.00   26.7    93    0.3   347     0.7   835.0    0.00 
  54   21:10   0.00   26.6    93    0.3   231     0.9   835.0    0.00 
  54   21:20   0.00   26.5    93    0.3    14     0.7   835.0    0.00 
  54   21:30   0.00   26.4    93    0.3    32     0.8   835.0    0.00 
  54   21:40   0.00   26.0    92    0.3    40     0.7   835.0    0.00 
  54   21:50   0.00   25.5    92    0.2   356     0.7   835.0    0.00 
  54   22:00   0.00   25.1    92    0.3   348     0.5   835.0    0.00 
  54   22:10   0.00   24.9    92    0.3   348     0.8   835.0    0.00 
  54   22:20   0.00   24.6    93    0.4   351     0.8   835.0    0.00 
  54   22:30   0.00   24.3    93    0.3    21     0.7   835.0    0.00 
  54   22:40   0.00   24.1    93    0.3   327     0.6   835.0    0.00 
  54   22:50   0.00   23.8    93    0.3   337     0.8   835.0    0.00 
  54   23:00   0.00   23.7    93    0.3   360     0.5   835.0    0.00 
  54   23:10   0.00   23.7    94    0.2   337     0.6   835.0    0.00 
  54   23:20   0.00   23.2    94    0.3   328     0.6   835.0    0.00 
  54   23:30   0.00   23.2    94    0.5    14     0.9   835.0    0.00 
  54   23:40   0.00   23.0    93    0.3   323     0.6   835.0    0.00 
  54   23:50   0.00   23.0    94    0.5    34     1.1   835.0    0.00 
  55    0:00   0.00   23.0    94    0.5   340     1.1   835.0    0.00 
  55    0:10   0.00   22.7    94    0.4     2     0.7   835.0    0.00 
  55    0:20   0.00   22.8    94    0.4     5     0.6   835.0    0.00 
  55    0:30   0.00   22.7    94    0.7    38     1.2   835.0    0.00 
  55    0:40   0.00   22.6    94    0.5   223     1.1   835.0    0.00 
  55    0:50   0.00   22.7    94    0.5    39     1.0   835.0    0.00 
  55    1:00   0.00   22.5    93    0.5    19     1.2   835.0    0.00 
  55    1:10   0.00   22.5    93    0.5   312     1.1   835.0    0.00 
  55    1:20   0.00   22.3    93    0.5    22     1.0   835.0    0.00 
  55    1:30   0.00   22.5    93    0.9    36     1.7   835.0    0.00 
  55    1:40   0.00   22.6    92    0.7    42     1.5   835.0    0.00 
  55    1:50   0.00   22.5    91    0.4    28     1.2   835.0    0.00 
  55    2:00   0.00   22.5    90    0.8    32     1.6   835.0    0.00 
  55    2:10   0.00   22.4    89    0.7    14     1.6   835.0    0.00 
  55    2:20   0.00   22.3    89    0.5    10     1.1   835.0    0.00 
  55    2:30   0.00   22.1    87    0.8    32     1.9   835.0    0.00 
  55    2:40   0.00   22.2    88    0.6    26     1.3   835.0    0.00 
  55    2:50   0.00   22.1    88    0.5    19     1.2   835.0    0.00 
  55    3:00   0.00   21.9    87    0.3     8     0.6   835.0    0.00 
  55    3:10   0.00   21.7    86    0.4    13     1.0   835.0    0.00 
  55    3:20   0.00   21.7    85    0.4    27     0.9   835.0    0.00 
  55    3:30   0.00   21.6    85    0.5    27     1.4   835.0    0.00 
  55    3:40   0.00   21.3    83    0.4     4     0.7   835.0    0.00 
  55    3:50   0.00   21.2    82    0.4    22     0.8   835.0    0.00 
  55    4:00   0.00   21.1    82    0.4    14     0.7   835.0    0.00 
  55    4:10   0.00   20.9    83    0.3    19     0.8   835.0    0.00 
  55    4:20   0.00   20.9    83    0.6    30     1.4   835.0    0.00 
  55    4:30   0.00   21.1    84    0.7    27     1.5   835.0    0.00 
  55    4:40   0.00   21.3    81    0.6    19     1.7   835.0    0.00 
  55    4:50   0.00   21.5    81    0.7    37     1.6   835.0    0.00 
  55    5:00   0.00   21.5    80    0.6    41     1.9   835.0    0.00 
  55    5:10   0.00   21.6    79    0.4     4     1.6   835.0    0.00 
  55    5:20   0.00   21.6    77    0.3    19     0.7   835.0    0.00 
  55    5:30   0.00   21.8    76    0.4    23     0.9   835.0    0.00 
  55    5:40   0.00   21.8    76    0.3    25     0.9   835.0    0.00 
  55    5:50   0.00   21.8    75    0.4    32     1.0   835.0    0.00 
  55    6:00   0.00   21.9    74    0.3    27     0.9   835.0    0.00 
  55    6:10   0.00   22.0    72    0.2    13     0.5   835.0    0.00 
  55    6:20   0.00   22.1    72    0.4    33     0.7   835.0    0.00 
  55    6:30   0.00   22.2    72    0.5    34     1.0   835.0    0.00 
  55    6:40   0.00   22.4    70    0.3    20     0.7   835.0    0.00 
  55    6:50   0.01   22.5    71    0.4    44     0.7   836.0    0.00 
  55    7:00   0.01   22.5    70    0.4    28     0.8   836.0    0.00 
  55    7:10   0.01   22.6    72    0.4    26     0.9   836.0    0.00 
  55    7:20   0.01   22.7    72    0.4    35     0.9   836.0    0.00 
  55    7:30   0.01   22.8    72    0.4    31     0.9   836.0    0.00 
  55    7:40   0.02   23.0    74    0.4    38     0.8   836.0    0.00 

Return to James Reserve graphs page.


Western Regional Climate Center,wrcc@dri.edu